sensor_id;sensor_type;location;lat;lon;timestamp;P1;durP1;ratioP1;P2;durP2;ratioP2
34481;SDS011;20720;48.886;9.388;2024-03-17T00:00:04;8.75;;;5.30;;
34481;SDS011;20720;48.886;9.388;2024-03-17T00:02:31;7.95;;;5.60;;
34481;SDS011;20720;48.886;9.388;2024-03-17T00:04:56;10.38;;;6.70;;
34481;SDS011;20720;48.886;9.388;2024-03-17T00:07:21;9.98;;;6.82;;
34481;SDS011;20720;48.886;9.388;2024-03-17T00:09:47;11.85;;;6.75;;
34481;SDS011;20720;48.886;9.388;2024-03-17T00:12:13;11.60;;;7.25;;
34481;SDS011;20720;48.886;9.388;2024-03-17T00:14:38;11.93;;;7.13;;
34481;SDS011;20720;48.886;9.388;2024-03-17T00:17:04;10.82;;;7.40;;
34481;SDS011;20720;48.886;9.388;2024-03-17T00:19:29;11.13;;;7.63;;
34481;SDS011;20720;48.886;9.388;2024-03-17T00:21:54;13.40;;;7.22;;
34481;SDS011;20720;48.886;9.388;2024-03-17T00:24:20;12.82;;;7.35;;
34481;SDS011;20720;48.886;9.388;2024-03-17T00:26:46;11.18;;;6.97;;
34481;SDS011;20720;48.886;9.388;2024-03-17T00:29:12;12.05;;;6.55;;
34481;SDS011;20720;48.886;9.388;2024-03-17T00:31:37;10.35;;;6.45;;
34481;SDS011;20720;48.886;9.388;2024-03-17T00:34:03;12.20;;;7.05;;
34481;SDS011;20720;48.886;9.388;2024-03-17T00:36:29;10.05;;;6.43;;
34481;SDS011;20720;48.886;9.388;2024-03-17T00:38:55;10.55;;;6.75;;
34481;SDS011;20720;48.886;9.388;2024-03-17T00:41:20;11.35;;;6.63;;
34481;SDS011;20720;48.886;9.388;2024-03-17T00:43:46;9.63;;;5.70;;
34481;SDS011;20720;48.886;9.388;2024-03-17T00:46:11;9.98;;;5.80;;
34481;SDS011;20720;48.886;9.388;2024-03-17T00:48:37;11.10;;;6.03;;
34481;SDS011;20720;48.886;9.388;2024-03-17T00:51:02;8.90;;;5.65;;
34481;SDS011;20720;48.886;9.388;2024-03-17T00:53:28;8.75;;;5.85;;
34481;SDS011;20720;48.886;9.388;2024-03-17T00:55:56;10.70;;;6.50;;
34481;SDS011;20720;48.886;9.388;2024-03-17T00:58:27;11.25;;;6.95;;
34481;SDS011;20720;48.886;9.388;2024-03-17T01:00:53;11.25;;;7.07;;
34481;SDS011;20720;48.886;9.388;2024-03-17T01:03:19;11.05;;;6.22;;
34481;SDS011;20720;48.886;9.388;2024-03-17T01:05:44;10.48;;;6.88;;
34481;SDS011;20720;48.886;9.388;2024-03-17T01:08:12;10.48;;;7.13;;
34481;SDS011;20720;48.886;9.388;2024-03-17T01:10:40;8.23;;;5.88;;
34481;SDS011;20720;48.886;9.388;2024-03-17T01:13:06;9.10;;;5.57;;
34481;SDS011;20720;48.886;9.388;2024-03-17T01:15:33;9.93;;;6.55;;
34481;SDS011;20720;48.886;9.388;2024-03-17T01:17:59;9.93;;;5.88;;
34481;SDS011;20720;48.886;9.388;2024-03-17T01:20:24;10.00;;;6.13;;
34481;SDS011;20720;48.886;9.388;2024-03-17T01:22:50;9.07;;;5.82;;
34481;SDS011;20720;48.886;9.388;2024-03-17T01:25:15;7.97;;;5.60;;
34481;SDS011;20720;48.886;9.388;2024-03-17T01:27:41;8.75;;;5.85;;
34481;SDS011;20720;48.886;9.388;2024-03-17T01:30:06;8.13;;;5.57;;
34481;SDS011;20720;48.886;9.388;2024-03-17T01:32:32;9.43;;;5.57;;
34481;SDS011;20720;48.886;9.388;2024-03-17T01:34:58;9.88;;;5.80;;
34481;SDS011;20720;48.886;9.388;2024-03-17T01:37:23;9.88;;;6.72;;
34481;SDS011;20720;48.886;9.388;2024-03-17T01:39:49;11.15;;;7.07;;
34481;SDS011;20720;48.886;9.388;2024-03-17T01:42:14;12.02;;;6.55;;
34481;SDS011;20720;48.886;9.388;2024-03-17T01:44:40;15.18;;;6.93;;
34481;SDS011;20720;48.886;9.388;2024-03-17T01:47:05;22.13;;;8.05;;
34481;SDS011;20720;48.886;9.388;2024-03-17T01:49:30;27.58;;;7.20;;
34481;SDS011;20720;48.886;9.388;2024-03-17T01:51:56;45.60;;;7.93;;
34481;SDS011;20720;48.886;9.388;2024-03-17T01:54:21;22.60;;;7.10;;
34481;SDS011;20720;48.886;9.388;2024-03-17T01:56:47;19.75;;;6.82;;
34481;SDS011;20720;48.886;9.388;2024-03-17T01:59:13;15.38;;;6.47;;
34481;SDS011;20720;48.886;9.388;2024-03-17T02:01:39;15.02;;;6.78;;
34481;SDS011;20720;48.886;9.388;2024-03-17T02:04:05;26.02;;;6.55;;
34481;SDS011;20720;48.886;9.388;2024-03-17T02:06:31;26.80;;;6.88;;
34481;SDS011;20720;48.886;9.388;2024-03-17T02:08:57;20.25;;;7.15;;
34481;SDS011;20720;48.886;9.388;2024-03-17T02:13:58;14.57;;;6.95;;
34481;SDS011;20720;48.886;9.388;2024-03-17T02:16:24;12.00;;;7.25;;
34481;SDS011;20720;48.886;9.388;2024-03-17T02:18:56;18.88;;;6.75;;
34481;SDS011;20720;48.886;9.388;2024-03-17T02:21:23;12.77;;;6.38;;
34481;SDS011;20720;48.886;9.388;2024-03-17T02:23:50;11.73;;;6.68;;
34481;SDS011;20720;48.886;9.388;2024-03-17T02:26:16;16.52;;;6.20;;
34481;SDS011;20720;48.886;9.388;2024-03-17T02:28:42;11.05;;;6.55;;
34481;SDS011;20720;48.886;9.388;2024-03-17T02:31:09;10.65;;;6.85;;
34481;SDS011;20720;48.886;9.388;2024-03-17T02:33:36;11.45;;;6.45;;
34481;SDS011;20720;48.886;9.388;2024-03-17T02:36:05;12.15;;;6.53;;
34481;SDS011;20720;48.886;9.388;2024-03-17T02:41:19;11.25;;;5.85;;
34481;SDS011;20720;48.886;9.388;2024-03-17T02:43:44;10.32;;;5.80;;
34481;SDS011;20720;48.886;9.388;2024-03-17T02:46:13;10.45;;;6.55;;
34481;SDS011;20720;48.886;9.388;2024-03-17T02:48:40;9.95;;;5.82;;
34481;SDS011;20720;48.886;9.388;2024-03-17T02:51:15;9.38;;;5.50;;
34481;SDS011;20720;48.886;9.388;2024-03-17T02:53:41;13.90;;;5.43;;
34481;SDS011;20720;48.886;9.388;2024-03-17T02:56:07;8.82;;;5.32;;
34481;SDS011;20720;48.886;9.388;2024-03-17T02:58:36;14.23;;;5.35;;
34481;SDS011;20720;48.886;9.388;2024-03-17T03:01:03;10.18;;;5.30;;
34481;SDS011;20720;48.886;9.388;2024-03-17T03:03:29;11.63;;;5.00;;
34481;SDS011;20720;48.886;9.388;2024-03-17T03:05:58;10.55;;;4.90;;
34481;SDS011;20720;48.886;9.388;2024-03-17T03:08:26;13.13;;;4.10;;
34481;SDS011;20720;48.886;9.388;2024-03-17T03:10:51;19.05;;;5.78;;
34481;SDS011;20720;48.886;9.388;2024-03-17T03:13:16;8.52;;;5.32;;
34481;SDS011;20720;48.886;9.388;2024-03-17T03:15:42;18.58;;;6.32;;
34481;SDS011;20720;48.886;9.388;2024-03-17T03:18:08;26.88;;;5.45;;
34481;SDS011;20720;48.886;9.388;2024-03-17T03:20:33;17.25;;;5.40;;
34481;SDS011;20720;48.886;9.388;2024-03-17T03:22:59;28.80;;;6.22;;
34481;SDS011;20720;48.886;9.388;2024-03-17T03:25:25;23.15;;;6.20;;
34481;SDS011;20720;48.886;9.388;2024-03-17T03:27:50;26.95;;;6.07;;
34481;SDS011;20720;48.886;9.388;2024-03-17T03:30:15;26.52;;;6.25;;
34481;SDS011;20720;48.886;9.388;2024-03-17T03:32:41;18.70;;;6.18;;
34481;SDS011;20720;48.886;9.388;2024-03-17T03:35:07;19.73;;;5.50;;
34481;SDS011;20720;48.886;9.388;2024-03-17T03:37:33;15.65;;;5.80;;
34481;SDS011;20720;48.886;9.388;2024-03-17T03:39:58;11.82;;;5.28;;
34481;SDS011;20720;48.886;9.388;2024-03-17T03:42:24;12.13;;;5.00;;
34481;SDS011;20720;48.886;9.388;2024-03-17T03:44:49;8.45;;;4.88;;
34481;SDS011;20720;48.886;9.388;2024-03-17T03:47:15;21.95;;;5.65;;
34481;SDS011;20720;48.886;9.388;2024-03-17T03:49:40;8.50;;;5.00;;
34481;SDS011;20720;48.886;9.388;2024-03-17T03:52:05;10.90;;;5.22;;
34481;SDS011;20720;48.886;9.388;2024-03-17T03:54:31;10.68;;;5.72;;
34481;SDS011;20720;48.886;9.388;2024-03-17T03:56:56;9.05;;;5.45;;
34481;SDS011;20720;48.886;9.388;2024-03-17T03:59:21;8.40;;;5.15;;
34481;SDS011;20720;48.886;9.388;2024-03-17T04:01:46;9.43;;;5.75;;
34481;SDS011;20720;48.886;9.388;2024-03-17T04:04:14;8.55;;;4.88;;
34481;SDS011;20720;48.886;9.388;2024-03-17T04:06:39;10.07;;;5.70;;
34481;SDS011;20720;48.886;9.388;2024-03-17T04:09:05;10.45;;;5.70;;
34481;SDS011;20720;48.886;9.388;2024-03-17T04:11:32;10.40;;;6.15;;
34481;SDS011;20720;48.886;9.388;2024-03-17T04:13:59;9.70;;;5.63;;
34481;SDS011;20720;48.886;9.388;2024-03-17T04:16:25;12.88;;;5.70;;
34481;SDS011;20720;48.886;9.388;2024-03-17T04:18:51;10.55;;;6.28;;
34481;SDS011;20720;48.886;9.388;2024-03-17T04:21:16;11.07;;;5.85;;
34481;SDS011;20720;48.886;9.388;2024-03-17T04:23:41;11.95;;;5.63;;
34481;SDS011;20720;48.886;9.388;2024-03-17T04:26:06;9.02;;;5.32;;
34481;SDS011;20720;48.886;9.388;2024-03-17T04:28:32;8.75;;;5.20;;
34481;SDS011;20720;48.886;9.388;2024-03-17T04:31:05;8.30;;;5.35;;
34481;SDS011;20720;48.886;9.388;2024-03-17T04:35:56;7.65;;;4.82;;
34481;SDS011;20720;48.886;9.388;2024-03-17T04:38:22;8.68;;;4.70;;
34481;SDS011;20720;48.886;9.388;2024-03-17T04:40:47;11.80;;;5.57;;
34481;SDS011;20720;48.886;9.388;2024-03-17T04:43:13;8.10;;;4.25;;
34481;SDS011;20720;48.886;9.388;2024-03-17T04:45:39;7.65;;;4.97;;
34481;SDS011;20720;48.886;9.388;2024-03-17T04:48:04;8.05;;;4.93;;
34481;SDS011;20720;48.886;9.388;2024-03-17T04:50:30;8.65;;;5.18;;
34481;SDS011;20720;48.886;9.388;2024-03-17T04:52:57;8.07;;;4.28;;
34481;SDS011;20720;48.886;9.388;2024-03-17T04:55:23;6.47;;;4.32;;
34481;SDS011;20720;48.886;9.388;2024-03-17T04:57:48;6.38;;;4.38;;
34481;SDS011;20720;48.886;9.388;2024-03-17T05:00:14;6.82;;;4.63;;
34481;SDS011;20720;48.886;9.388;2024-03-17T05:02:40;7.65;;;5.10;;
34481;SDS011;20720;48.886;9.388;2024-03-17T05:05:05;5.63;;;4.03;;
34481;SDS011;20720;48.886;9.388;2024-03-17T05:07:33;6.10;;;3.85;;
34481;SDS011;20720;48.886;9.388;2024-03-17T05:09:58;6.15;;;3.75;;
34481;SDS011;20720;48.886;9.388;2024-03-17T05:12:23;6.47;;;4.22;;
34481;SDS011;20720;48.886;9.388;2024-03-17T05:14:49;7.68;;;4.25;;
34481;SDS011;20720;48.886;9.388;2024-03-17T05:17:14;6.45;;;4.05;;
34481;SDS011;20720;48.886;9.388;2024-03-17T05:19:39;6.38;;;3.70;;
34481;SDS011;20720;48.886;9.388;2024-03-17T05:22:05;5.13;;;3.28;;
34481;SDS011;20720;48.886;9.388;2024-03-17T05:24:30;6.65;;;4.03;;
34481;SDS011;20720;48.886;9.388;2024-03-17T05:26:55;4.55;;;3.15;;
34481;SDS011;20720;48.886;9.388;2024-03-17T05:29:20;6.80;;;3.60;;
34481;SDS011;20720;48.886;9.388;2024-03-17T05:31:47;5.50;;;3.42;;
34481;SDS011;20720;48.886;9.388;2024-03-17T05:34:12;4.78;;;3.22;;
34481;SDS011;20720;48.886;9.388;2024-03-17T05:36:38;5.85;;;3.55;;
34481;SDS011;20720;48.886;9.388;2024-03-17T05:39:03;6.88;;;3.55;;
34481;SDS011;20720;48.886;9.388;2024-03-17T05:41:28;7.35;;;3.80;;
34481;SDS011;20720;48.886;9.388;2024-03-17T05:43:54;5.97;;;3.88;;
34481;SDS011;20720;48.886;9.388;2024-03-17T05:46:23;5.38;;;3.40;;
34481;SDS011;20720;48.886;9.388;2024-03-17T05:48:48;5.70;;;3.85;;
34481;SDS011;20720;48.886;9.388;2024-03-17T05:51:14;6.32;;;3.80;;
34481;SDS011;20720;48.886;9.388;2024-03-17T05:53:41;6.18;;;3.70;;
34481;SDS011;20720;48.886;9.388;2024-03-17T05:56:09;5.50;;;3.75;;
34481;SDS011;20720;48.886;9.388;2024-03-17T05:58:36;6.97;;;4.55;;
34481;SDS011;20720;48.886;9.388;2024-03-17T06:01:02;7.03;;;4.43;;
34481;SDS011;20720;48.886;9.388;2024-03-17T06:03:28;6.85;;;4.60;;
34481;SDS011;20720;48.886;9.388;2024-03-17T06:05:53;7.82;;;5.05;;
34481;SDS011;20720;48.886;9.388;2024-03-17T06:08:19;7.70;;;5.55;;
34481;SDS011;20720;48.886;9.388;2024-03-17T06:10:45;8.25;;;5.28;;
34481;SDS011;20720;48.886;9.388;2024-03-17T06:13:12;10.55;;;5.80;;
34481;SDS011;20720;48.886;9.388;2024-03-17T06:15:38;8.40;;;5.45;;
34481;SDS011;20720;48.886;9.388;2024-03-17T06:18:04;8.43;;;5.68;;
34481;SDS011;20720;48.886;9.388;2024-03-17T06:20:33;8.65;;;5.35;;
34481;SDS011;20720;48.886;9.388;2024-03-17T06:22:59;7.55;;;5.20;;
34481;SDS011;20720;48.886;9.388;2024-03-17T06:25:24;8.38;;;5.07;;
34481;SDS011;20720;48.886;9.388;2024-03-17T06:27:50;7.43;;;4.60;;
34481;SDS011;20720;48.886;9.388;2024-03-17T06:30:16;6.35;;;4.50;;
34481;SDS011;20720;48.886;9.388;2024-03-17T06:32:41;7.15;;;4.30;;
34481;SDS011;20720;48.886;9.388;2024-03-17T06:35:10;6.95;;;4.47;;
34481;SDS011;20720;48.886;9.388;2024-03-17T06:37:36;7.40;;;4.35;;
34481;SDS011;20720;48.886;9.388;2024-03-17T06:40:01;7.43;;;4.50;;
34481;SDS011;20720;48.886;9.388;2024-03-17T06:42:28;7.75;;;4.18;;
34481;SDS011;20720;48.886;9.388;2024-03-17T06:44:54;7.07;;;4.57;;
34481;SDS011;20720;48.886;9.388;2024-03-17T06:47:19;7.13;;;4.65;;
34481;SDS011;20720;48.886;9.388;2024-03-17T06:49:44;7.88;;;4.70;;
34481;SDS011;20720;48.886;9.388;2024-03-17T06:52:10;7.53;;;4.78;;
34481;SDS011;20720;48.886;9.388;2024-03-17T06:54:36;7.57;;;4.72;;
34481;SDS011;20720;48.886;9.388;2024-03-17T06:57:01;8.70;;;5.38;;
34481;SDS011;20720;48.886;9.388;2024-03-17T06:59:26;10.50;;;5.93;;
34481;SDS011;20720;48.886;9.388;2024-03-17T07:01:51;12.43;;;6.38;;
34481;SDS011;20720;48.886;9.388;2024-03-17T07:04:16;10.20;;;6.38;;
34481;SDS011;20720;48.886;9.388;2024-03-17T07:06:42;11.95;;;6.47;;
34481;SDS011;20720;48.886;9.388;2024-03-17T07:09:07;11.50;;;6.75;;
34481;SDS011;20720;48.886;9.388;2024-03-17T07:11:33;12.18;;;6.45;;
34481;SDS011;20720;48.886;9.388;2024-03-17T07:13:59;9.95;;;5.82;;
34481;SDS011;20720;48.886;9.388;2024-03-17T07:16:24;9.20;;;6.20;;
34481;SDS011;20720;48.886;9.388;2024-03-17T07:18:52;10.48;;;5.60;;
34481;SDS011;20720;48.886;9.388;2024-03-17T07:21:18;11.90;;;6.75;;
34481;SDS011;20720;48.886;9.388;2024-03-17T07:23:43;14.88;;;7.50;;
34481;SDS011;20720;48.886;9.388;2024-03-17T07:26:09;14.73;;;7.28;;
34481;SDS011;20720;48.886;9.388;2024-03-17T07:28:34;13.40;;;7.15;;
34481;SDS011;20720;48.886;9.388;2024-03-17T07:31:00;14.30;;;7.88;;
34481;SDS011;20720;48.886;9.388;2024-03-17T07:33:26;11.45;;;7.05;;
34481;SDS011;20720;48.886;9.388;2024-03-17T07:35:52;13.05;;;7.68;;
34481;SDS011;20720;48.886;9.388;2024-03-17T07:38:20;12.07;;;7.68;;
34481;SDS011;20720;48.886;9.388;2024-03-17T07:40:55;11.23;;;6.95;;
34481;SDS011;20720;48.886;9.388;2024-03-17T07:43:24;10.95;;;7.00;;
34481;SDS011;20720;48.886;9.388;2024-03-17T07:46:23;11.73;;;7.72;;
34481;SDS011;20720;48.886;9.388;2024-03-17T07:48:42;9.80;;;6.68;;
34481;SDS011;20720;48.886;9.388;2024-03-17T07:51:09;10.23;;;7.38;;
34481;SDS011;20720;48.886;9.388;2024-03-17T07:53:36;9.82;;;7.22;;
34481;SDS011;20720;48.886;9.388;2024-03-17T07:56:05;10.80;;;7.05;;
34481;SDS011;20720;48.886;9.388;2024-03-17T07:58:32;8.68;;;6.68;;
34481;SDS011;20720;48.886;9.388;2024-03-17T08:01:02;7.80;;;5.95;;
34481;SDS011;20720;48.886;9.388;2024-03-17T08:03:29;9.95;;;6.07;;
34481;SDS011;20720;48.886;9.388;2024-03-17T08:05:55;7.82;;;6.40;;
34481;SDS011;20720;48.886;9.388;2024-03-17T08:08:20;9.40;;;6.10;;
34481;SDS011;20720;48.886;9.388;2024-03-17T08:10:46;8.00;;;5.60;;
34481;SDS011;20720;48.886;9.388;2024-03-17T08:13:13;8.63;;;6.15;;
34481;SDS011;20720;48.886;9.388;2024-03-17T08:15:42;7.68;;;5.53;;
34481;SDS011;20720;48.886;9.388;2024-03-17T08:18:14;6.95;;;4.97;;
34481;SDS011;20720;48.886;9.388;2024-03-17T08:20:40;7.47;;;5.18;;
34481;SDS011;20720;48.886;9.388;2024-03-17T08:23:07;6.57;;;4.88;;
34481;SDS011;20720;48.886;9.388;2024-03-17T08:25:33;9.30;;;4.53;;
34481;SDS011;20720;48.886;9.388;2024-03-17T08:27:59;7.05;;;4.72;;
34481;SDS011;20720;48.886;9.388;2024-03-17T08:30:25;5.85;;;4.22;;
34481;SDS011;20720;48.886;9.388;2024-03-17T08:32:50;6.88;;;5.03;;
34481;SDS011;20720;48.886;9.388;2024-03-17T08:35:16;6.78;;;4.78;;
34481;SDS011;20720;48.886;9.388;2024-03-17T08:37:41;5.55;;;4.25;;
34481;SDS011;20720;48.886;9.388;2024-03-17T08:40:06;7.63;;;4.40;;
34481;SDS011;20720;48.886;9.388;2024-03-17T08:42:32;8.93;;;4.15;;
34481;SDS011;20720;48.886;9.388;2024-03-17T08:44:57;4.15;;;3.47;;
34481;SDS011;20720;48.886;9.388;2024-03-17T08:47:23;5.85;;;4.63;;
34481;SDS011;20720;48.886;9.388;2024-03-17T08:49:51;7.47;;;4.05;;
34481;SDS011;20720;48.886;9.388;2024-03-17T08:52:17;7.35;;;4.40;;
34481;SDS011;20720;48.886;9.388;2024-03-17T08:54:45;6.75;;;3.90;;
34481;SDS011;20720;48.886;9.388;2024-03-17T08:57:12;9.20;;;4.43;;
34481;SDS011;20720;48.886;9.388;2024-03-17T08:59:37;6.05;;;4.18;;
34481;SDS011;20720;48.886;9.388;2024-03-17T09:02:02;7.63;;;3.90;;
34481;SDS011;20720;48.886;9.388;2024-03-17T09:04:28;5.97;;;4.18;;
34481;SDS011;20720;48.886;9.388;2024-03-17T09:06:54;4.93;;;3.75;;
34481;SDS011;20720;48.886;9.388;2024-03-17T09:09:21;4.82;;;3.70;;
34481;SDS011;20720;48.886;9.388;2024-03-17T09:11:46;5.38;;;4.28;;
34481;SDS011;20720;48.886;9.388;2024-03-17T09:14:11;6.22;;;4.60;;
34481;SDS011;20720;48.886;9.388;2024-03-17T09:16:37;7.60;;;4.35;;
34481;SDS011;20720;48.886;9.388;2024-03-17T09:19:02;6.32;;;4.20;;
34481;SDS011;20720;48.886;9.388;2024-03-17T09:21:27;7.50;;;4.30;;
34481;SDS011;20720;48.886;9.388;2024-03-17T09:23:53;9.05;;;4.13;;
34481;SDS011;20720;48.886;9.388;2024-03-17T09:26:18;5.43;;;4.43;;
34481;SDS011;20720;48.886;9.388;2024-03-17T09:28:43;5.85;;;4.10;;
34481;SDS011;20720;48.886;9.388;2024-03-17T09:31:09;6.07;;;4.65;;
34481;SDS011;20720;48.886;9.388;2024-03-17T09:33:36;5.97;;;4.15;;
34481;SDS011;20720;48.886;9.388;2024-03-17T09:36:03;5.20;;;3.90;;
34481;SDS011;20720;48.886;9.388;2024-03-17T09:38:33;5.72;;;4.40;;
34481;SDS011;20720;48.886;9.388;2024-03-17T09:40:59;6.47;;;4.57;;
34481;SDS011;20720;48.886;9.388;2024-03-17T09:43:27;6.30;;;4.10;;
34481;SDS011;20720;48.886;9.388;2024-03-17T09:45:54;5.95;;;4.05;;
34481;SDS011;20720;48.886;9.388;2024-03-17T09:48:23;4.93;;;3.88;;
34481;SDS011;20720;48.886;9.388;2024-03-17T09:50:50;6.20;;;3.83;;
34481;SDS011;20720;48.886;9.388;2024-03-17T09:53:24;4.55;;;3.05;;
34481;SDS011;20720;48.886;9.388;2024-03-17T09:55:57;5.43;;;4.07;;
34481;SDS011;20720;48.886;9.388;2024-03-17T09:58:24;4.93;;;3.85;;
34481;SDS011;20720;48.886;9.388;2024-03-17T10:00:49;7.57;;;4.80;;
34481;SDS011;20720;48.886;9.388;2024-03-17T10:03:38;4.93;;;3.35;;
34481;SDS011;20720;48.886;9.388;2024-03-17T10:06:21;6.53;;;3.42;;
34481;SDS011;20720;48.886;9.388;2024-03-17T10:08:48;4.47;;;3.13;;
34481;SDS011;20720;48.886;9.388;2024-03-17T10:11:19;4.32;;;3.05;;
34481;SDS011;20720;48.886;9.388;2024-03-17T10:13:46;4.45;;;2.90;;
34481;SDS011;20720;48.886;9.388;2024-03-17T10:16:24;5.00;;;3.47;;
34481;SDS011;20720;48.886;9.388;2024-03-17T10:21:37;4.50;;;2.80;;
34481;SDS011;20720;48.886;9.388;2024-03-17T10:26:51;3.75;;;2.83;;
34481;SDS011;20720;48.886;9.388;2024-03-17T10:29:22;4.68;;;2.63;;
34481;SDS011;20720;48.886;9.388;2024-03-17T10:31:55;4.40;;;2.70;;
34481;SDS011;20720;48.886;9.388;2024-03-17T10:34:23;5.38;;;2.70;;
34481;SDS011;20720;48.886;9.388;2024-03-17T10:39:47;4.93;;;2.85;;
34481;SDS011;20720;48.886;9.388;2024-03-17T10:42:20;4.35;;;3.00;;
34481;SDS011;20720;48.886;9.388;2024-03-17T10:44:49;5.10;;;2.70;;
34481;SDS011;20720;48.886;9.388;2024-03-17T10:47:20;4.30;;;2.45;;
34481;SDS011;20720;48.886;9.388;2024-03-17T10:49:53;5.10;;;3.03;;
34481;SDS011;20720;48.886;9.388;2024-03-17T10:52:20;5.03;;;2.78;;
34481;SDS011;20720;48.886;9.388;2024-03-17T10:54:47;6.85;;;3.00;;
34481;SDS011;20720;48.886;9.388;2024-03-17T10:59:51;4.70;;;2.85;;
34481;SDS011;20720;48.886;9.388;2024-03-17T11:04:48;4.25;;;2.80;;
34481;SDS011;20720;48.886;9.388;2024-03-17T11:07:16;6.18;;;3.30;;
34481;SDS011;20720;48.886;9.388;2024-03-17T11:09:44;4.15;;;3.13;;
34481;SDS011;20720;48.886;9.388;2024-03-17T11:15:29;4.18;;;3.10;;
34481;SDS011;20720;48.886;9.388;2024-03-17T11:17:52;4.72;;;2.78;;
34481;SDS011;20720;48.886;9.388;2024-03-17T11:20:23;3.75;;;2.75;;
34481;SDS011;20720;48.886;9.388;2024-03-17T11:22:50;3.67;;;2.67;;
34481;SDS011;20720;48.886;9.388;2024-03-17T11:27:50;4.97;;;2.60;;
34481;SDS011;20720;48.886;9.388;2024-03-17T11:38:57;5.55;;;2.97;;
34481;SDS011;20720;48.886;9.388;2024-03-17T11:46:40;4.32;;;2.75;;
34481;SDS011;20720;48.886;9.388;2024-03-17T11:49:07;5.72;;;2.95;;
34481;SDS011;20720;48.886;9.388;2024-03-17T11:51:45;6.55;;;2.72;;
34481;SDS011;20720;48.886;9.388;2024-03-17T11:54:13;4.75;;;2.40;;
34481;SDS011;20720;48.886;9.388;2024-03-17T11:56:43;4.47;;;2.30;;
34481;SDS011;20720;48.886;9.388;2024-03-17T11:59:09;4.38;;;2.50;;
34481;SDS011;20720;48.886;9.388;2024-03-17T12:01:36;4.10;;;2.20;;
34481;SDS011;20720;48.886;9.388;2024-03-17T12:04:04;5.65;;;2.10;;
34481;SDS011;20720;48.886;9.388;2024-03-17T12:06:30;5.32;;;2.17;;
34481;SDS011;20720;48.886;9.388;2024-03-17T12:14:33;3.78;;;1.63;;
34481;SDS011;20720;48.886;9.388;2024-03-17T12:17:02;5.85;;;2.10;;
34481;SDS011;20720;48.886;9.388;2024-03-17T12:19:39;4.15;;;1.67;;
34481;SDS011;20720;48.886;9.388;2024-03-17T12:22:05;2.83;;;1.52;;
34481;SDS011;20720;48.886;9.388;2024-03-17T12:24:34;3.85;;;1.90;;
34481;SDS011;20720;48.886;9.388;2024-03-17T12:27:03;3.92;;;1.90;;
34481;SDS011;20720;48.886;9.388;2024-03-17T12:32:01;3.72;;;2.17;;
34481;SDS011;20720;48.886;9.388;2024-03-17T12:34:29;3.33;;;1.80;;
34481;SDS011;20720;48.886;9.388;2024-03-17T12:36:56;3.58;;;2.00;;
34481;SDS011;20720;48.886;9.388;2024-03-17T12:39:23;3.90;;;2.00;;
34481;SDS011;20720;48.886;9.388;2024-03-17T12:42:02;4.45;;;1.83;;
34481;SDS011;20720;48.886;9.388;2024-03-17T12:44:51;3.95;;;2.15;;
34481;SDS011;20720;48.886;9.388;2024-03-17T12:47:22;2.45;;;1.50;;
34481;SDS011;20720;48.886;9.388;2024-03-17T12:49:52;2.95;;;1.50;;
34481;SDS011;20720;48.886;9.388;2024-03-17T12:52:20;2.63;;;1.50;;
34481;SDS011;20720;48.886;9.388;2024-03-17T12:55:01;4.22;;;1.67;;
34481;SDS011;20720;48.886;9.388;2024-03-17T12:57:49;5.28;;;1.88;;
34481;SDS011;20720;48.886;9.388;2024-03-17T13:00:34;3.20;;;1.80;;
34481;SDS011;20720;48.886;9.388;2024-03-17T13:03:00;4.28;;;2.03;;
34481;SDS011;20720;48.886;9.388;2024-03-17T13:05:26;6.10;;;2.53;;
34481;SDS011;20720;48.886;9.388;2024-03-17T13:07:52;3.33;;;1.92;;
34481;SDS011;20720;48.886;9.388;2024-03-17T13:10:19;8.10;;;2.53;;
34481;SDS011;20720;48.886;9.388;2024-03-17T13:12:45;2.72;;;1.67;;
34481;SDS011;20720;48.886;9.388;2024-03-17T13:15:12;5.32;;;2.40;;
34481;SDS011;20720;48.886;9.388;2024-03-17T13:17:39;2.90;;;1.67;;
34481;SDS011;20720;48.886;9.388;2024-03-17T13:20:06;4.63;;;2.08;;
34481;SDS011;20720;48.886;9.388;2024-03-17T13:22:36;4.93;;;2.40;;
34481;SDS011;20720;48.886;9.388;2024-03-17T13:25:03;3.08;;;2.15;;
34481;SDS011;20720;48.886;9.388;2024-03-17T13:27:29;3.25;;;1.90;;
34481;SDS011;20720;48.886;9.388;2024-03-17T13:29:54;3.55;;;1.95;;
34481;SDS011;20720;48.886;9.388;2024-03-17T13:32:19;4.37;;;2.23;;
34481;SDS011;20720;48.886;9.388;2024-03-17T13:34:45;3.53;;;1.90;;
34481;SDS011;20720;48.886;9.388;2024-03-17T13:37:10;3.83;;;2.00;;
34481;SDS011;20720;48.886;9.388;2024-03-17T13:39:36;5.18;;;2.75;;
34481;SDS011;20720;48.886;9.388;2024-03-17T13:42:01;4.28;;;2.30;;
34481;SDS011;20720;48.886;9.388;2024-03-17T13:44:29;3.40;;;1.70;;
34481;SDS011;20720;48.886;9.388;2024-03-17T13:46:55;3.30;;;1.88;;
34481;SDS011;20720;48.886;9.388;2024-03-17T13:49:21;5.63;;;2.30;;
34481;SDS011;20720;48.886;9.388;2024-03-17T13:51:47;2.83;;;2.10;;
34481;SDS011;20720;48.886;9.388;2024-03-17T13:54:12;3.55;;;2.20;;
34481;SDS011;20720;48.886;9.388;2024-03-17T13:56:38;4.07;;;2.03;;
34481;SDS011;20720;48.886;9.388;2024-03-17T13:59:03;3.10;;;2.20;;
34481;SDS011;20720;48.886;9.388;2024-03-17T14:01:29;3.63;;;2.03;;
34481;SDS011;20720;48.886;9.388;2024-03-17T14:03:54;5.72;;;2.47;;
34481;SDS011;20720;48.886;9.388;2024-03-17T14:06:19;3.15;;;1.90;;
34481;SDS011;20720;48.886;9.388;2024-03-17T14:08:45;4.70;;;2.20;;
34481;SDS011;20720;48.886;9.388;2024-03-17T14:11:10;2.92;;;1.95;;
34481;SDS011;20720;48.886;9.388;2024-03-17T14:13:35;3.30;;;1.92;;
34481;SDS011;20720;48.886;9.388;2024-03-17T14:16:01;5.72;;;2.00;;
34481;SDS011;20720;48.886;9.388;2024-03-17T14:18:26;3.25;;;1.88;;
34481;SDS011;20720;48.886;9.388;2024-03-17T14:20:51;4.72;;;2.03;;
34481;SDS011;20720;48.886;9.388;2024-03-17T14:23:17;3.58;;;2.00;;
34481;SDS011;20720;48.886;9.388;2024-03-17T14:25:42;5.47;;;1.90;;
34481;SDS011;20720;48.886;9.388;2024-03-17T14:28:07;5.60;;;2.00;;
34481;SDS011;20720;48.886;9.388;2024-03-17T14:30:33;6.07;;;2.47;;
34481;SDS011;20720;48.886;9.388;2024-03-17T14:32:59;4.32;;;1.95;;
34481;SDS011;20720;48.886;9.388;2024-03-17T14:35:24;4.65;;;2.20;;
34481;SDS011;20720;48.886;9.388;2024-03-17T14:37:51;4.18;;;2.30;;
34481;SDS011;20720;48.886;9.388;2024-03-17T14:40:17;3.70;;;1.80;;
34481;SDS011;20720;48.886;9.388;2024-03-17T14:42:48;4.05;;;2.30;;
34481;SDS011;20720;48.886;9.388;2024-03-17T14:45:14;5.15;;;2.28;;
34481;SDS011;20720;48.886;9.388;2024-03-17T14:47:40;3.88;;;2.10;;
34481;SDS011;20720;48.886;9.388;2024-03-17T14:50:05;4.07;;;2.10;;
34481;SDS011;20720;48.886;9.388;2024-03-17T14:52:31;4.28;;;2.20;;
34481;SDS011;20720;48.886;9.388;2024-03-17T14:54:56;3.78;;;1.90;;
34481;SDS011;20720;48.886;9.388;2024-03-17T14:57:22;4.13;;;2.15;;
34481;SDS011;20720;48.886;9.388;2024-03-17T14:59:47;5.13;;;2.17;;
34481;SDS011;20720;48.886;9.388;2024-03-17T15:02:13;4.93;;;1.90;;
34481;SDS011;20720;48.886;9.388;2024-03-17T15:04:39;3.40;;;1.60;;
34481;SDS011;20720;48.886;9.388;2024-03-17T15:07:04;4.30;;;1.77;;
34481;SDS011;20720;48.886;9.388;2024-03-17T15:09:29;4.38;;;1.92;;
34481;SDS011;20720;48.886;9.388;2024-03-17T15:11:57;4.20;;;1.60;;
34481;SDS011;20720;48.886;9.388;2024-03-17T15:14:23;3.42;;;2.00;;
34481;SDS011;20720;48.886;9.388;2024-03-17T15:16:48;2.58;;;1.55;;
34481;SDS011;20720;48.886;9.388;2024-03-17T15:19:13;4.43;;;1.80;;
34481;SDS011;20720;48.886;9.388;2024-03-17T15:21:38;4.03;;;1.90;;
34481;SDS011;20720;48.886;9.388;2024-03-17T15:24:04;4.43;;;1.80;;
34481;SDS011;20720;48.886;9.388;2024-03-17T15:26:31;5.25;;;1.80;;
34481;SDS011;20720;48.886;9.388;2024-03-17T15:28:57;4.70;;;2.03;;